Aérodrome :
LOGIN :

S'inscrire | Disclaimer

   EN    FR    IT 

 










Légende :    VFR   VFR Marginal   IFR   IFR Intensif   IFR Très Intensif
Visi : 
Plafond : 
>= 8 km
>= 3000ft
5 à 8 km
1000 à 3000 ft
1500m à 5 km
500 à 1000 ft
800 à 1500m
200 à 500 ft
< 800m
< 200 ft
Symboles :   Orages  Brouillard  Fortes neiges  Fortes précipitations  Vent > 20 kt
SIGMETs :   Divers  Orages  Givrage  Turbulence  Onde Orograph.  Cendres Volcan.






- Altitude de l'aérodrome : 1115 ft
- Code IATA : GRZ


LOWG - Graz

DERNIER METAR :
  • 050020Z AUTO VRB01KT 9999 NCD 14/12 Q1019

METARs EXPIRÉS :
  • 042350Z AUTO VRB01KT 9999 NCD 15/13 Q1018
  • 042320Z AUTO VRB01KT 9999 NCD 15/12 Q1018
  • 042250Z AUTO VRB02KT 9999 NCD 15/13 Q1018
  • 042220Z AUTO VRB02KT 9999 NCD 15/12 Q1018
  • 042150Z AUTO VRB01KT 9999 NCD 16/12 Q1018

TAF TAF LOWG
Valide du 05 à 00h jusqu'au 06 à 00h UTC


042315Z 0500/0524 15005KT 9999 FEW060 TX29/0515Z TN12/0503Z



MET'MAP, la Météo Aéronautique d'un coup d'oeil ! - Copyright ORBIFLY Décembre 2007 - Disclaimer

ORBIFLY MET'MAP TEAM :

Programmation & Développement : Alexandra Zaïnal
Sur une idée originale de : Baudouin d'Aumeries
Assistance à la programmation : Marc-Olivier Méhu
Soutien technique & logistique : Manuel Goepfert

Contact : metmap@orbifly.com




SOURCES & CREDITS :

   NOAA